Time;durP1;ratioP1;P1;durP2;ratioP2;P2;SDS_P1;SDS_P2;PMS_P1;PMS_P2;Temp;Humidity;BMP_temperature;BMP_pressure;BME280_temperature;BME280_humidity;BME280_pressure;Samples;Min_cycle;Max_cycle;Signal;HPM_P1;HPM_P2
2023/06/04 00:01:53;;;;;;;0.13;0.13;;;16.40;93.10;;;;;;5136458;27;20080;-74
2023/06/04 00:04:19;;;;;;;0.10;0.10;;;16.50;93.50;;;;;;5119018;27;20027;-74
2023/06/04 00:06:45;;;;;;;4.65;1.20;;;16.50;93.40;;;;;;5136723;27;20030;-74
2023/06/04 00:09:11;;;;;;;0.10;0.10;;;16.60;93.40;;;;;;5122127;27;20056;-74
2023/06/04 00:11:37;;;;;;;0.20;0.20;;;16.50;94.40;;;;;;5136593;27;20094;-74
2023/06/04 00:14:03;;;;;;;0.20;0.20;;;16.50;94.50;;;;;;5135918;27;20520;-74
2023/06/04 00:16:29;;;;;;;0.15;0.15;;;16.50;94.60;;;;;;5136702;27;20023;-74
2023/06/04 00:18:54;;;;;;;0.20;0.20;;;16.50;95.10;;;;;;5135851;27;20050;-74
2023/06/04 00:21:20;;;;;;;0.10;0.10;;;16.30;95.80;;;;;;5136011;27;20082;-73
2023/06/04 00:23:46;;;;;;;0.25;0.25;;;16.40;96.10;;;;;;5136515;27;20038;-74
2023/06/04 00:26:12;;;;;;;0.35;0.35;;;16.40;96.10;;;;;;5136021;27;20019;-74
2023/06/04 00:28:40;;;;;;;0.10;0.10;;;16.50;96.10;;;;;;5117448;27;20364;-74
2023/06/04 00:31:06;;;;;;;0.20;0.20;;;16.40;95.90;;;;;;5117531;27;20111;-74
2023/06/04 00:33:32;;;;;;;0.25;0.20;;;16.40;96.20;;;;;;5117756;27;20023;-74
2023/06/04 00:35:58;;;;;;;0.10;0.10;;;16.40;96.50;;;;;;5105721;28;20024;-73
2023/06/04 00:38:23;;;;;;;0.25;0.20;;;16.40;96.70;;;;;;5116888;27;20059;-74
2023/06/04 00:40:49;;;;;;;0.20;0.20;;;16.50;96.60;;;;;;5135626;27;20023;-74
2023/06/04 00:43:15;;;;;;;0.10;0.10;;;16.40;96.80;;;;;;5135429;27;20103;-74
2023/06/04 00:45:42;;;;;;;0.10;0.10;;;16.50;96.80;;;;;;5135962;27;20063;-74
2023/06/04 00:48:09;;;;;;;0.10;0.10;;;16.40;96.90;;;;;;5135658;27;20068;-74
2023/06/04 00:50:38;;;;;;;0.28;0.28;;;16.50;97.00;;;;;;5135680;27;20118;-74
2023/06/04 00:53:05;;;;;;;0.10;0.10;;;16.30;97.30;;;;;;5117326;27;20053;-74
2023/06/04 00:55:31;;;;;;;0.10;0.10;;;16.10;97.40;;;;;;5135542;27;20035;-74
2023/06/04 00:57:57;;;;;;;0.10;0.10;;;16.30;97.50;;;;;;5135223;27;20378;-74
2023/06/04 01:00:23;;;;;;;0.10;0.10;;;16.20;97.70;;;;;;5135401;27;20030;-74
2023/06/04 01:02:53;;;;;;;0.10;0.10;;;16.10;98.50;;;;;;5117136;27;20027;-74
2023/06/04 01:05:33;;;;;;;0.63;0.63;;;16.10;98.40;;;;;;5116985;27;20015;-74
2023/06/04 01:08:00;;;;;;;0.13;0.13;;;16.10;98.40;;;;;;5092660;28;20723;-74
2023/06/04 01:10:25;;;;;;;0.20;0.20;;;16.00;98.70;;;;;;5128320;27;20027;-74
2023/06/04 01:12:51;;;;;;;0.10;0.10;;;16.00;98.60;;;;;;5116548;27;20075;-74
2023/06/04 01:15:17;;;;;;;0.10;0.10;;;16.00;98.50;;;;;;5135292;27;20372;-74
2023/06/04 01:17:51;;;;;;;0.10;0.10;;;16.00;98.70;;;;;;5135082;27;20023;-74
2023/06/04 01:20:50;;;;;;;0.10;0.10;;;16.00;98.60;;;;;;5116624;27;20032;-74
2023/06/04 01:23:34;;;;;;;0.10;0.10;;;16.10;98.40;;;;;;5072602;27;20503;-74
2023/06/04 01:26:04;;;;;;;0.25;0.25;;;15.90;98.80;;;;;;5134759;27;20516;-74
2023/06/04 01:28:32;;;;;;;0.10;0.10;;;15.90;99.10;;;;;;5134834;27;20136;-74
2023/06/04 01:30:59;;;;;;;0.10;0.10;;;15.90;99.40;;;;;;5133891;27;20057;-74
2023/06/04 01:33:27;;;;;;;0.35;0.35;;;15.70;99.40;;;;;;5134793;27;20026;-74
2023/06/04 01:35:53;;;;;;;0.47;0.47;;;15.80;99.60;;;;;;5134988;27;20102;-74
2023/06/04 01:38:19;;;;;;;0.20;0.20;;;15.80;99.70;;;;;;5134828;27;20030;-74
2023/06/04 01:40:45;;;;;;;0.10;0.10;;;15.80;99.80;;;;;;5134209;27;20031;-74
2023/06/04 01:43:11;;;;;;;0.10;0.10;;;15.70;99.90;;;;;;5116071;27;20445;-74
2023/06/04 01:45:37;;;;;;;0.13;0.13;;;15.70;99.90;;;;;;5134738;27;20023;-74
2023/06/04 01:48:05;;;;;;;0.20;0.20;;;15.50;99.90;;;;;;5134191;27;20035;-74
2023/06/04 01:50:31;;;;;;;0.57;0.57;;;15.50;99.90;;;;;;5134564;27;20103;-74
2023/06/04 01:52:57;;;;;;;0.10;0.10;;;15.40;99.90;;;;;;5116178;27;20027;-73
2023/06/04 01:55:25;;;;;;;0.10;0.10;;;15.50;99.90;;;;;;5134132;27;20076;-74
2023/06/04 01:57:51;;;;;;;0.10;0.10;;;15.50;99.90;;;;;;5115875;27;20072;-74
2023/06/04 02:00:17;;;;;;;0.20;0.20;;;15.50;99.90;;;;;;5099068;27;20454;-74
2023/06/04 02:02:50;;;;;;;0.10;0.10;;;15.60;99.90;;;;;;5098674;27;20419;-74
2023/06/04 02:05:15;;;;;;;0.15;0.15;;;15.60;99.90;;;;;;5134128;27;20035;-74
2023/06/04 02:07:44;;;;;;;0.10;0.10;;;15.70;99.90;;;;;;5111300;28;20096;-75
2023/06/04 02:10:18;;;;;;;0.10;0.10;;;15.60;99.90;;;;;;5124639;27;20058;-74
2023/06/04 02:13:02;;;;;;;0.20;0.20;;;15.60;99.90;;;;;;5115815;27;20037;-74
2023/06/04 02:15:29;;;;;;;0.10;0.10;;;15.50;99.90;;;;;;5134214;27;20034;-74
2023/06/04 02:18:02;;;;;;;0.10;0.10;;;15.40;99.90;;;;;;5104320;28;20027;-74
2023/06/04 02:20:28;;;;;;;0.10;0.10;;;15.30;99.90;;;;;;5113529;28;20070;-74
2023/06/04 02:22:55;;;;;;;0.10;0.10;;;15.30;99.90;;;;;;5095153;28;20431;-75
2023/06/04 02:25:22;;;;;;;0.10;0.10;;;15.40;99.90;;;;;;5113171;28;20078;-74
2023/06/04 02:27:48;;;;;;;0.10;0.10;;;15.50;99.90;;;;;;5113429;28;20027;-74
2023/06/04 02:30:15;;;;;;;0.20;0.20;;;15.60;99.90;;;;;;5113385;28;20448;-74
2023/06/04 02:32:41;;;;;;;0.10;0.10;;;15.30;99.90;;;;;;5113174;28;20518;-74
2023/06/04 02:35:07;;;;;;;0.20;0.20;;;15.50;99.90;;;;;;5094873;28;20051;-75
2023/06/04 02:37:33;;;;;;;0.25;0.25;;;15.40;99.90;;;;;;5113353;28;20038;-74
2023/06/04 02:39:58;;;;;;;0.10;0.10;;;15.40;99.90;;;;;;5112621;28;20417;-74
2023/06/04 02:42:24;;;;;;;3.97;0.22;;;15.20;99.90;;;;;;5094931;28;20051;-74
2023/06/04 02:44:50;;;;;;;0.10;0.10;;;15.10;99.90;;;;;;5094938;28;20028;-74
2023/06/04 02:47:19;;;;;;;0.10;0.10;;;15.10;99.90;;;;;;5113386;28;20047;-75
2023/06/04 02:49:46;;;;;;;0.17;0.17;;;15.00;99.90;;;;;;5113268;28;20023;-74
2023/06/04 02:52:12;;;;;;;0.10;0.10;;;15.10;99.90;;;;;;5094855;28;20036;-74
2023/06/04 02:54:38;;;;;;;0.22;0.22;;;15.20;99.90;;;;;;5112751;28;20022;-74
2023/06/04 02:57:04;;;;;;;0.10;0.10;;;15.10;99.90;;;;;;5113028;28;20490;-74
2023/06/04 02:59:30;;;;;;;0.10;0.10;;;15.00;99.90;;;;;;5113198;28;20176;-74
2023/06/04 03:01:56;;;;;;;0.30;0.30;;;15.10;99.90;;;;;;5112989;28;20134;-74
2023/06/04 03:04:21;;;;;;;0.10;0.10;;;14.80;99.90;;;;;;5077986;28;20441;-74
2023/06/04 03:06:47;;;;;;;0.20;0.20;;;14.70;99.90;;;;;;5114126;28;20483;-74
2023/06/04 03:09:13;;;;;;;0.15;0.15;;;14.80;99.90;;;;;;5094752;28;20058;-74
2023/06/04 03:11:39;;;;;;;0.20;0.20;;;14.70;99.90;;;;;;5094960;28;20032;-74
2023/06/04 03:14:05;;;;;;;0.10;0.10;;;14.70;99.90;;;;;;5112666;28;20476;-74
2023/06/04 03:16:31;;;;;;;0.10;0.10;;;14.90;99.90;;;;;;5113146;28;20032;-74
2023/06/04 03:18:57;;;;;;;0.10;0.10;;;14.80;99.90;;;;;;5112649;28;20515;-74
2023/06/04 03:21:24;;;;;;;0.10;0.10;;;14.80;99.90;;;;;;5094823;28;20024;-74
2023/06/04 03:23:51;;;;;;;0.10;0.10;;;14.80;99.90;;;;;;5112313;28;20066;-74
2023/06/04 03:26:17;;;;;;;0.13;0.13;;;14.80;99.90;;;;;;5094789;28;20020;-74
2023/06/04 03:28:42;;;;;;;0.85;0.85;;;14.90;99.90;;;;;;5112718;28;20110;-74
2023/06/04 03:31:12;;;;;;;0.10;0.10;;;14.90;99.90;;;;;;5094525;28;20026;-74
2023/06/04 03:33:38;;;;;;;0.10;0.10;;;14.70;99.90;;;;;;5094246;28;20026;-74
2023/06/04 03:36:05;;;;;;;0.10;0.10;;;14.70;99.90;;;;;;5112535;28;20020;-74
2023/06/04 03:38:30;;;;;;;0.10;0.10;;;14.80;99.90;;;;;;5093953;28;20022;-74
2023/06/04 03:40:57;;;;;;;0.10;0.10;;;14.60;99.90;;;;;;5112231;28;20102;-74
2023/06/04 03:43:23;;;;;;;0.10;0.10;;;14.70;99.90;;;;;;5094225;28;20063;-74
2023/06/04 03:45:52;;;;;;;0.45;0.30;;;14.60;99.90;;;;;;5094192;28;20020;-74
2023/06/04 03:48:18;;;;;;;0.10;0.10;;;14.70;99.90;;;;;;5094210;28;20107;-73
2023/06/04 03:50:45;;;;;;;0.15;0.15;;;14.70;99.90;;;;;;5094339;28;20024;-74
2023/06/04 03:53:12;;;;;;;0.10;0.10;;;14.60;99.90;;;;;;5094076;28;20027;-74
2023/06/04 03:55:38;;;;;;;0.10;0.10;;;14.60;99.90;;;;;;5096969;28;20065;-74
2023/06/04 03:58:09;;;;;;;0.45;0.45;;;14.60;99.90;;;;;;5097619;28;20176;-74
2023/06/04 04:00:35;;;;;;;0.10;0.10;;;14.50;99.90;;;;;;5097575;28;20016;-74
2023/06/04 04:03:02;;;;;;;2.90;1.10;;;14.50;99.90;;;;;;5080979;28;20135;-74
2023/06/04 04:05:31;;;;;;;0.30;0.30;;;14.50;99.90;;;;;;5097305;28;20016;-74
2023/06/04 04:07:57;;;;;;;0.10;0.10;;;14.60;99.90;;;;;;5080797;28;20425;-74
2023/06/04 04:10:27;;;;;;;0.10;0.10;;;14.40;99.90;;;;;;5097197;28;20441;-74
2023/06/04 04:12:54;;;;;;;0.10;0.10;;;14.30;99.90;;;;;;5097538;28;20118;-74
2023/06/04 04:15:21;;;;;;;0.10;0.10;;;14.40;99.90;;;;;;5097517;28;20028;-74
2023/06/04 04:17:48;;;;;;;0.10;0.10;;;14.30;99.90;;;;;;5080878;28;20035;-74
2023/06/04 04:20:16;;;;;;;0.10;0.10;;;14.30;99.90;;;;;;5096881;28;20067;-74
2023/06/04 04:22:47;;;;;;;0.10;0.10;;;14.60;99.90;;;;;;5097224;28;20054;-73
2023/06/04 04:25:14;;;;;;;0.15;0.15;;;14.60;99.90;;;;;;5097209;28;20034;-74
2023/06/04 04:27:40;;;;;;;0.20;0.20;;;14.80;99.90;;;;;;5097343;28;20028;-74
2023/06/04 04:30:09;;;;;;;0.10;0.10;;;14.60;99.90;;;;;;5097153;28;20024;-74
2023/06/04 04:32:38;;;;;;;1.73;0.45;;;14.60;99.90;;;;;;5096934;28;20028;-74
2023/06/04 04:35:07;;;;;;;0.10;0.10;;;14.60;99.90;;;;;;5096982;28;20023;-74
2023/06/04 04:37:38;;;;;;;0.10;0.10;;;14.60;99.90;;;;;;5097043;28;20028;-74
2023/06/04 04:40:08;;;;;;;0.10;0.10;;;14.60;99.90;;;;;;5097017;28;20036;-74
2023/06/04 04:42:35;;;;;;;2.03;0.35;;;14.70;99.90;;;;;;5097015;28;20055;-74
2023/06/04 04:45:02;;;;;;;0.20;0.20;;;14.60;99.90;;;;;;5096913;28;20088;-74
2023/06/04 04:47:29;;;;;;;0.20;0.20;;;14.70;99.90;;;;;;5080497;28;20031;-74
2023/06/04 04:49:55;;;;;;;0.10;0.10;;;14.70;99.90;;;;;;5096687;28;20383;-74
2023/06/04 04:52:21;;;;;;;0.10;0.10;;;14.90;99.90;;;;;;5115117;28;20472;-75
2023/06/04 04:54:47;;;;;;;0.10;0.10;;;14.90;99.90;;;;;;5096780;28;20057;-74
2023/06/04 04:57:14;;;;;;;0.10;0.10;;;14.90;99.90;;;;;;5096914;28;20027;-74
2023/06/04 04:59:43;;;;;;;0.10;0.10;;;14.90;99.90;;;;;;5096507;28;20065;-74
2023/06/04 05:02:09;;;;;;;0.10;0.10;;;15.10;99.90;;;;;;5096541;28;20028;-74
2023/06/04 05:04:35;;;;;;;0.10;0.10;;;15.20;99.90;;;;;;5096421;28;20031;-74
2023/06/04 05:07:01;;;;;;;0.10;0.10;;;15.40;99.90;;;;;;5096347;28;20372;-74
2023/06/04 05:09:27;;;;;;;2.05;1.10;;;15.30;99.90;;;;;;5096644;28;20097;-74
2023/06/04 05:11:53;;;;;;;0.40;0.40;;;15.10;99.90;;;;;;5096234;28;20023;-74
2023/06/04 05:14:18;;;;;;;0.10;0.10;;;15.20;99.90;;;;;;5096552;28;20075;-74
2023/06/04 05:16:45;;;;;;;0.20;0.20;;;15.50;99.90;;;;;;5096190;28;20030;-74
2023/06/04 05:19:12;;;;;;;0.10;0.10;;;15.50;99.90;;;;;;5079484;28;20034;-74
2023/06/04 05:21:39;;;;;;;0.10;0.10;;;15.90;99.90;;;;;;5096279;28;20028;-74
2023/06/04 05:24:06;;;;;;;0.10;0.10;;;15.70;99.90;;;;;;5096428;28;20032;-74
2023/06/04 05:26:37;;;;;;;0.10;0.10;;;15.70;99.90;;;;;;5096079;28;20055;-74
2023/06/04 05:29:09;;;;;;;0.32;0.32;;;15.70;99.90;;;;;;5096196;28;20525;-74
2023/06/04 05:31:39;;;;;;;0.32;0.32;;;15.90;99.90;;;;;;5089170;28;20042;-74
2023/06/04 05:34:06;;;;;;;0.10;0.10;;;16.10;99.80;;;;;;5095069;28;20020;-74
2023/06/04 05:36:34;;;;;;;0.30;0.30;;;16.00;99.90;;;;;;5065736;28;20072;-74
2023/06/04 05:39:04;;;;;;;1.83;0.70;;;15.70;99.90;;;;;;5099217;28;20024;-74
2023/06/04 05:41:36;;;;;;;0.20;0.20;;;16.00;99.80;;;;;;5098916;28;20066;-74
2023/06/04 05:44:03;;;;;;;0.45;0.45;;;16.00;99.60;;;;;;5099958;28;20024;-74
2023/06/04 05:46:29;;;;;;;0.10;0.10;;;16.30;99.00;;;;;;5096892;28;20102;-74
2023/06/04 05:48:55;;;;;;;0.15;0.15;;;16.50;98.60;;;;;;5093378;28;20028;-74
2023/06/04 05:51:23;;;;;;;0.22;0.22;;;16.50;98.70;;;;;;5083296;28;20024;-74
2023/06/04 05:53:49;;;;;;;0.22;0.22;;;16.40;98.10;;;;;;5093928;28;20031;-74
2023/06/04 05:56:16;;;;;;;0.10;0.10;;;16.20;98.70;;;;;;5079484;28;20042;-74
2023/06/04 05:58:50;;;;;;;0.17;0.17;;;16.30;98.40;;;;;;5091846;28;20031;-74
2023/06/04 06:01:16;;;;;;;0.57;0.57;;;16.20;98.70;;;;;;5105602;28;20464;-74
2023/06/04 06:03:42;;;;;;;0.25;0.25;;;16.50;97.70;;;;;;5100445;28;20036;-74
2023/06/04 06:06:10;;;;;;;0.10;0.10;;;16.60;97.70;;;;;;5093284;28;20130;-74
2023/06/04 06:08:37;;;;;;;0.20;0.20;;;16.70;98.00;;;;;;5080263;28;20032;-73
2023/06/04 06:11:04;;;;;;;0.38;0.38;;;16.70;97.60;;;;;;5111164;27;20020;-74
2023/06/04 06:13:30;;;;;;;0.10;0.10;;;16.80;97.50;;;;;;5098483;28;20050;-74
2023/06/04 06:15:57;;;;;;;0.57;0.25;;;16.80;97.70;;;;;;5101468;28;20035;-74
2023/06/04 06:18:23;;;;;;;0.10;0.10;;;17.00;96.70;;;;;;5099595;28;20491;-74
2023/06/04 06:20:49;;;;;;;0.05;0.05;;;16.80;97.10;;;;;;5092665;28;20026;-74
2023/06/04 06:23:16;;;;;;;0.20;0.20;;;17.10;96.90;;;;;;5095411;28;20395;-73
2023/06/04 06:25:45;;;;;;;0.10;0.10;;;17.00;97.20;;;;;;5103126;28;20016;-74
2023/06/04 06:28:15;;;;;;;0.40;0.40;;;16.80;98.00;;;;;;5104487;28;20357;-73
2023/06/04 06:30:43;;;;;;;0.10;0.10;;;16.90;98.60;;;;;;5111390;28;20055;-74
2023/06/04 06:33:10;;;;;;;0.68;0.57;;;17.00;98.60;;;;;;5111741;28;20089;-74
2023/06/04 06:35:36;;;;;;;0.10;0.10;;;17.20;97.90;;;;;;5112315;28;20031;-74
2023/06/04 06:38:01;;;;;;;3.30;0.32;;;17.30;97.30;;;;;;5112233;28;20015;-74
2023/06/04 06:40:27;;;;;;;0.10;0.10;;;17.40;97.70;;;;;;5112237;28;20123;-74
2023/06/04 06:42:53;;;;;;;0.20;0.20;;;17.50;97.50;;;;;;5112150;28;20028;-74
2023/06/04 06:45:19;;;;;;;0.00;0.00;;;17.60;97.10;;;;;;5112063;28;20476;-74
2023/06/04 06:47:45;;;;;;;0.10;0.10;;;17.60;97.30;;;;;;5112163;28;20082;-74
2023/06/04 06:50:11;;;;;;;0.20;0.20;;;17.80;97.40;;;;;;5111870;28;20036;-74
2023/06/04 06:52:38;;;;;;;0.10;0.10;;;18.10;97.00;;;;;;5103322;28;20062;-75
2023/06/04 06:55:04;;;;;;;0.05;0.05;;;18.30;96.20;;;;;;5111940;28;20035;-74
2023/06/04 06:57:30;;;;;;;0.10;0.10;;;18.30;95.80;;;;;;5112431;28;20035;-74
2023/06/04 06:59:56;;;;;;;0.10;0.10;;;18.60;95.30;;;;;;5111524;28;20349;-74
2023/06/04 07:02:22;;;;;;;0.10;0.10;;;18.50;95.70;;;;;;5111798;28;20476;-74
2023/06/04 07:04:48;;;;;;;0.05;0.05;;;18.60;94.40;;;;;;5111628;28;20012;-74
2023/06/04 07:07:14;;;;;;;0.00;0.00;;;18.40;94.60;;;;;;5112185;28;20112;-74
2023/06/04 07:09:40;;;;;;;0.00;0.00;;;18.70;94.60;;;;;;5112219;28;20024;-74
2023/06/04 07:12:06;;;;;;;0.08;0.08;;;18.80;93.90;;;;;;5102194;28;20184;-74
2023/06/04 07:14:32;;;;;;;0.25;0.25;;;19.20;93.80;;;;;;5110223;28;20035;-74
2023/06/04 07:16:58;;;;;;;0.20;0.20;;;19.10;93.80;;;;;;5111156;28;20023;-74
2023/06/04 07:19:23;;;;;;;0.20;0.20;;;19.00;93.20;;;;;;5095733;28;20521;-74
2023/06/04 07:21:50;;;;;;;0.10;0.10;;;19.00;93.30;;;;;;5116514;28;20040;-74
2023/06/04 07:24:16;;;;;;;0.00;0.00;;;19.10;92.60;;;;;;5098014;28;20028;-74
2023/06/04 07:26:41;;;;;;;0.20;0.20;;;19.30;92.30;;;;;;5112139;28;20036;-74
2023/06/04 07:29:07;;;;;;;0.10;0.10;;;19.60;91.70;;;;;;5112210;28;20062;-74
2023/06/04 07:31:33;;;;;;;0.10;0.10;;;19.80;91.60;;;;;;5101508;28;20031;-74
2023/06/04 07:33:59;;;;;;;0.00;0.00;;;19.90;91.40;;;;;;5115631;28;20027;-74
2023/06/04 07:36:25;;;;;;;0.08;0.08;;;20.00;91.20;;;;;;5097788;28;20035;-74
2023/06/04 07:38:51;;;;;;;0.00;0.00;;;20.20;91.50;;;;;;5109874;28;20029;-75
2023/06/04 07:41:16;;;;;;;0.17;0.17;;;20.30;91.00;;;;;;5114041;28;20044;-74
2023/06/04 07:43:43;;;;;;;0.10;0.10;;;20.60;91.00;;;;;;5113893;28;20047;-74
2023/06/04 07:46:09;;;;;;;0.40;0.40;;;20.70;88.70;;;;;;5114898;28;20024;-74
2023/06/04 07:48:35;;;;;;;0.50;0.20;;;21.10;86.00;;;;;;5115513;28;20115;-74
2023/06/04 07:51:04;;;;;;;0.80;0.43;;;20.90;87.10;;;;;;5115280;28;20107;-74
2023/06/04 07:53:30;;;;;;;0.00;0.00;;;20.80;86.70;;;;;;5115527;28;20020;-74
2023/06/04 07:55:57;;;;;;;0.00;0.00;;;21.00;86.40;;;;;;5115509;28;20096;-74
2023/06/04 07:58:23;;;;;;;0.10;0.10;;;21.20;85.60;;;;;;5114550;28;20062;-75
2023/06/04 08:00:49;;;;;;;0.03;0.03;;;21.00;85.90;;;;;;5114924;28;20118;-74
2023/06/04 08:03:15;;;;;;;0.20;0.20;;;21.10;84.70;;;;;;5115036;28;20078;-74
2023/06/04 08:05:41;;;;;;;0.10;0.10;;;21.10;84.90;;;;;;5115401;28;20019;-74
2023/06/04 08:08:07;;;;;;;0.00;0.00;;;21.20;83.80;;;;;;5114944;28;20617;-75
2023/06/04 08:10:32;;;;;;;0.00;0.00;;;21.50;82.50;;;;;;5096986;28;20020;-74
2023/06/04 08:12:58;;;;;;;0.00;0.00;;;21.70;83.60;;;;;;5114721;28;20032;-74
2023/06/04 08:15:24;;;;;;;0.17;0.17;;;22.00;82.70;;;;;;5114949;28;20015;-74
2023/06/04 08:17:50;;;;;;;0.10;0.10;;;21.90;79.90;;;;;;5114756;28;20038;-74
2023/06/04 08:20:16;;;;;;;0.10;0.10;;;21.80;80.60;;;;;;5093745;28;20028;-74
2023/06/04 08:22:42;;;;;;;0.00;0.00;;;21.70;81.50;;;;;;5114962;28;20471;-74
2023/06/04 08:25:08;;;;;;;0.13;0.13;;;21.90;80.00;;;;;;5114524;28;20031;-74
2023/06/04 08:27:34;;;;;;;0.20;0.20;;;22.10;80.50;;;;;;5114265;28;20023;-74
2023/06/04 08:30:00;;;;;;;0.00;0.00;;;22.20;81.00;;;;;;5114362;28;20031;-74
2023/06/04 08:32:26;;;;;;;0.25;0.22;;;22.20;80.30;;;;;;5113594;28;20032;-73
2023/06/04 08:34:52;;;;;;;0.00;0.00;;;22.30;80.60;;;;;;5115298;28;20026;-74
2023/06/04 08:37:18;;;;;;;0.10;0.10;;;22.50;79.30;;;;;;5114984;28;20027;-74
2023/06/04 08:39:43;;;;;;;0.00;0.00;;;22.70;78.90;;;;;;5114704;28;20051;-75
2023/06/04 08:42:33;;;;;;;0.00;0.00;;;22.90;78.60;;;;;;5096068;28;20032;-78
2023/06/04 08:44:59;;;;;;;0.00;0.00;;;23.00;77.70;;;;;;5094004;28;20505;-74
2023/06/04 08:47:28;;;;;;;0.03;0.03;;;23.00;77.80;;;;;;5114584;28;20034;-74
2023/06/04 08:49:59;;;;;;;0.20;0.20;;;23.20;76.90;;;;;;5114772;28;20031;-74
2023/06/04 08:52:26;;;;;;;0.10;0.10;;;23.50;73.50;;;;;;5115020;28;20476;-74
2023/06/04 08:54:53;;;;;;;0.10;0.10;;;23.50;74.50;;;;;;5115073;28;20019;-74
2023/06/04 08:57:20;;;;;;;0.10;0.10;;;23.60;75.10;;;;;;5114605;28;20032;-74
2023/06/04 08:59:46;;;;;;;0.03;0.03;;;23.70;74.70;;;;;;5114945;28;20080;-74
2023/06/04 09:02:16;;;;;;;0.10;0.10;;;23.70;74.60;;;;;;5114894;28;20043;-74
2023/06/04 09:04:42;;;;;;;0.00;0.00;;;23.60;74.00;;;;;;5114882;28;20092;-74
2023/06/04 09:07:11;;;;;;;0.35;0.32;;;23.60;74.50;;;;;;5114734;28;20038;-74
2023/06/04 09:09:42;;;;;;;0.00;0.00;;;23.90;73.00;;;;;;5114746;28;20031;-74
2023/06/04 09:12:17;;;;;;;0.17;0.17;;;24.10;73.60;;;;;;5077271;28;20028;-74
2023/06/04 09:14:43;;;;;;;1.65;0.35;;;24.10;72.70;;;;;;5106367;28;20089;-74
2023/06/04 09:17:08;;;;;;;0.30;0.30;;;23.90;71.20;;;;;;5114367;28;20028;-74
2023/06/04 09:19:34;;;;;;;0.30;0.30;;;24.10;71.00;;;;;;5114445;28;20039;-74
2023/06/04 09:22:02;;;;;;;0.10;0.10;;;24.20;71.10;;;;;;5114169;28;20107;-74
2023/06/04 09:24:49;;;;;;;0.00;0.00;;;24.30;70.00;;;;;;5114426;28;20019;-74
2023/06/04 09:27:20;;;;;;;0.10;0.10;;;24.60;70.30;;;;;;5114331;28;20041;-74
2023/06/04 09:29:56;;;;;;;0.73;0.60;;;24.60;69.10;;;;;;5114437;28;20035;-75
2023/06/04 09:32:22;;;;;;;0.15;0.15;;;24.40;69.20;;;;;;5114287;28;20034;-74
2023/06/04 09:34:48;;;;;;;0.13;0.13;;;24.80;68.30;;;;;;5114232;28;20106;-74
2023/06/04 09:37:17;;;;;;;0.65;0.65;;;24.50;68.60;;;;;;5114319;28;20111;-74
2023/06/04 09:39:44;;;;;;;0.10;0.10;;;24.50;69.20;;;;;;5113828;28;20073;-74
2023/06/04 09:42:10;;;;;;;0.15;0.15;;;24.40;67.40;;;;;;5113993;28;20035;-74
2023/06/04 09:44:45;;;;;;;0.08;0.08;;;24.70;67.20;;;;;;5114222;28;20024;-74
2023/06/04 09:47:11;;;;;;;0.00;0.00;;;25.00;66.60;;;;;;5114056;28;20080;-74
2023/06/04 09:49:49;;;;;;;0.30;0.30;;;25.10;64.60;;;;;;5113979;28;20563;-74
2023/06/04 09:52:16;;;;;;;0.63;0.63;;;25.00;65.10;;;;;;5094828;28;20032;-73
2023/06/04 09:54:42;;;;;;;0.08;0.08;;;25.10;64.20;;;;;;5096211;28;20038;-74
2023/06/04 09:57:16;;;;;;;0.10;0.10;;;25.20;65.40;;;;;;5096332;28;20055;-74
2023/06/04 09:59:45;;;;;;;0.08;0.08;;;25.10;65.50;;;;;;5113880;28;20032;-74
2023/06/04 10:02:12;;;;;;;0.20;0.20;;;25.20;64.10;;;;;;5113619;28;20468;-74
2023/06/04 10:04:45;;;;;;;0.20;0.20;;;24.80;65.10;;;;;;5113796;28;20102;-74
2023/06/04 10:07:12;;;;;;;0.10;0.10;;;24.80;64.30;;;;;;5095537;28;20053;-74
2023/06/04 10:09:45;;;;;;;0.00;0.00;;;24.90;64.90;;;;;;5113683;28;20372;-74
2023/06/04 10:12:17;;;;;;;0.05;0.05;;;25.00;64.90;;;;;;5113442;28;20043;-74
2023/06/04 10:14:59;;;;;;;0.03;0.03;;;25.10;64.20;;;;;;5113750;28;20073;-74
2023/06/04 10:17:28;;;;;;;0.22;0.22;;;25.40;64.30;;;;;;5113378;28;20016;-74
2023/06/04 10:19:55;;;;;;;0.22;0.22;;;25.10;63.90;;;;;;5113709;28;20031;-74
2023/06/04 10:22:21;;;;;;;0.17;0.17;;;25.50;64.40;;;;;;5113263;28;20105;-74
2023/06/04 10:24:47;;;;;;;0.10;0.10;;;25.60;63.90;;;;;;5113268;28;20028;-74
2023/06/04 10:27:13;;;;;;;0.00;0.00;;;25.80;63.50;;;;;;5095275;28;20052;-74
2023/06/04 10:29:39;;;;;;;0.00;0.00;;;25.70;63.40;;;;;;5113381;28;20474;-74
2023/06/04 10:32:06;;;;;;;0.00;0.00;;;25.80;62.10;;;;;;5113472;28;20421;-74
2023/06/04 10:34:33;;;;;;;0.10;0.10;;;25.40;63.00;;;;;;5094750;28;20084;-74
2023/06/04 10:36:58;;;;;;;0.10;0.10;;;25.70;62.60;;;;;;5113321;28;20110;-74
2023/06/04 10:39:35;;;;;;;4.18;0.75;;;25.80;62.90;;;;;;5094682;28;20424;-74
2023/06/04 10:42:02;;;;;;;0.00;0.00;;;25.70;62.50;;;;;;5113157;28;20083;-74
2023/06/04 10:44:32;;;;;;;0.40;0.40;;;25.60;62.20;;;;;;5113048;28;20066;-74
2023/06/04 10:46:58;;;;;;;0.93;0.50;;;26.00;61.50;;;;;;5113284;28;20023;-74
2023/06/04 10:49:33;;;;;;;0.00;0.00;;;26.20;60.50;;;;;;5113125;28;20032;-74
2023/06/04 10:52:10;;;;;;;0.05;0.05;;;26.40;61.80;;;;;;5113174;28;20023;-74
2023/06/04 10:54:36;;;;;;;0.00;0.00;;;26.50;61.70;;;;;;5112922;28;20105;-74
2023/06/04 10:57:11;;;;;;;0.15;0.15;;;26.70;60.60;;;;;;5112998;28;20016;-73
2023/06/04 10:59:37;;;;;;;0.03;0.03;;;26.30;61.10;;;;;;5113009;28;20471;-74
2023/06/04 11:02:07;;;;;;;0.10;0.10;;;26.70;61.10;;;;;;5113006;28;20031;-73
2023/06/04 11:04:33;;;;;;;0.00;0.00;;;27.00;61.40;;;;;;5116041;28;20039;-73
2023/06/04 11:07:03;;;;;;;1.45;0.38;;;27.30;59.90;;;;;;5117066;28;20019;-73
2023/06/04 11:09:30;;;;;;;0.10;0.10;;;26.90;60.70;;;;;;5117105;28;20059;-73
2023/06/04 11:11:59;;;;;;;0.17;0.15;;;27.20;60.00;;;;;;5117635;28;20467;-74
2023/06/04 11:14:25;;;;;;;0.20;0.20;;;27.40;60.70;;;;;;5116892;28;20036;-73
2023/06/04 11:16:52;;;;;;;0.00;0.00;;;26.80;60.30;;;;;;5116912;28;20093;-72
2023/06/04 11:19:18;;;;;;;0.00;0.00;;;27.10;60.30;;;;;;5116995;28;20042;-73
2023/06/04 11:21:45;;;;;;;0.00;0.00;;;27.70;59.40;;;;;;5116745;28;20785;-73
2023/06/04 11:24:12;;;;;;;0.00;0.00;;;27.80;58.60;;;;;;5116688;28;20043;-73
2023/06/04 11:26:38;;;;;;;0.10;0.10;;;28.30;57.80;;;;;;5116634;28;20032;-73
2023/06/04 11:29:11;;;;;;;0.10;0.10;;;28.20;58.00;;;;;;5116857;28;20118;-72
2023/06/04 11:31:45;;;;;;;0.17;0.08;;;28.10;59.10;;;;;;5116917;28;20057;-73
2023/06/04 11:34:22;;;;;;;1.25;0.47;;;28.10;58.30;;;;;;5116447;28;20076;-72
2023/06/04 11:36:49;;;;;;;0.00;0.00;;;28.10;59.10;;;;;;5098313;28;20448;-73
2023/06/04 11:39:15;;;;;;;0.00;0.00;;;28.40;57.50;;;;;;5116535;28;20081;-72
2023/06/04 11:41:42;;;;;;;0.00;0.00;;;28.10;58.00;;;;;;5116147;28;20430;-75
2023/06/04 11:44:08;;;;;;;0.00;0.00;;;28.10;58.30;;;;;;5116393;28;20039;-72
2023/06/04 11:46:44;;;;;;;0.20;0.20;;;28.30;57.50;;;;;;5097833;28;20027;-73
2023/06/04 11:49:15;;;;;;;0.10;0.10;;;28.40;58.20;;;;;;5116358;28;20031;-73
2023/06/04 11:51:48;;;;;;;;;;;28.50;56.80;;;;;;5098034;28;20403;-73
2023/06/04 11:54:15;;;;;;;0.00;0.00;;;28.50;58.10;;;;;;5116250;28;19907;-73
2023/06/04 11:56:45;;;;;;;0.00;0.00;;;29.00;57.30;;;;;;5116006;28;20486;-73
2023/06/04 11:59:15;;;;;;;0.20;0.20;;;29.00;57.30;;;;;;5116082;28;20539;-73
2023/06/04 12:01:46;;;;;;;0.00;0.00;;;29.10;57.40;;;;;;5115877;28;20380;-73
2023/06/04 12:04:16;;;;;;;0.10;0.10;;;29.00;56.80;;;;;;5115868;28;20035;-73
2023/06/04 12:06:53;;;;;;;0.00;0.00;;;29.00;57.00;;;;;;5115858;28;20039;-73
2023/06/04 12:09:27;;;;;;;0.00;0.00;;;28.60;57.00;;;;;;5104179;28;20023;-72
2023/06/04 12:12:03;;;;;;;0.82;0.82;;;28.60;57.10;;;;;;5114204;28;20019;-73
2023/06/04 12:14:30;;;;;;;0.03;0.03;;;29.30;57.20;;;;;;5114460;28;20027;-73
2023/06/04 12:17:07;;;;;;;0.00;0.00;;;28.60;56.30;;;;;;5114523;28;20074;-73
2023/06/04 12:19:33;;;;;;;0.10;0.10;;;28.60;57.10;;;;;;5110067;27;20134;-73
2023/06/04 12:22:04;;;;;;;0.28;0.28;;;28.90;57.20;;;;;;5113461;27;20028;-73
2023/06/04 12:24:32;;;;;;;0.93;0.47;;;29.10;56.90;;;;;;5109308;27;20028;-73
2023/06/04 12:27:06;;;;;;;0.00;0.00;;;29.50;57.40;;;;;;5106447;27;20032;-73
2023/06/04 12:29:32;;;;;;;0.10;0.10;;;29.60;57.00;;;;;;5110485;27;20031;-73
2023/06/04 12:32:07;;;;;;;0.00;0.00;;;29.70;57.00;;;;;;5115183;27;20543;-73
2023/06/04 12:34:37;;;;;;;0.20;0.20;;;29.80;57.20;;;;;;5112334;27;20089;-73
2023/06/04 12:37:05;;;;;;;0.00;0.00;;;30.20;56.40;;;;;;5095515;28;20545;-73
2023/06/04 12:39:32;;;;;;;0.08;0.03;;;29.90;56.20;;;;;;5111807;27;20072;-73
2023/06/04 12:41:58;;;;;;;0.10;0.10;;;29.40;56.90;;;;;;5109623;28;20032;-73
2023/06/04 12:44:24;;;;;;;0.38;0.38;;;30.00;56.90;;;;;;5113885;28;20110;-73
2023/06/04 12:46:50;;;;;;;0.00;0.00;;;30.20;57.00;;;;;;5111734;27;20372;-73
2023/06/04 12:49:16;;;;;;;0.00;0.00;;;29.90;56.40;;;;;;5095285;28;20517;-74
2023/06/04 12:51:42;;;;;;;0.15;0.15;;;30.20;56.40;;;;;;5113335;28;20102;-73